createdAt,value
2017-11-17T00:00:31.057Z,94.10
2017-11-17T00:01:58.450Z,94.00
2017-11-17T00:03:25.682Z,94.03
2017-11-17T00:04:53.113Z,94.12
2017-11-17T00:06:20.259Z,94.22
2017-11-17T00:07:47.709Z,94.34
2017-11-17T00:09:18.964Z,94.34
2017-11-17T00:10:46.205Z,94.43
2017-11-17T00:12:09.467Z,94.99
2017-11-17T00:13:40.648Z,95.14
2017-11-17T00:15:03.970Z,95.20
2017-11-17T00:16:31.254Z,95.37
2017-11-17T00:17:58.457Z,95.47
2017-11-17T00:19:25.784Z,95.54
2017-11-17T00:20:53.125Z,95.46
2017-11-17T00:22:20.203Z,95.42
2017-11-17T00:23:47.711Z,95.62
2017-11-17T00:25:15.076Z,95.70
2017-11-17T00:26:42.362Z,95.69
2017-11-17T00:28:09.924Z,95.83
2017-11-17T00:29:41.261Z,95.95
2017-11-17T00:31:04.677Z,96.24
2017-11-17T00:32:31.996Z,96.32
2017-11-17T00:33:59.122Z,96.92
2017-11-17T00:35:26.553Z,97.18
2017-11-17T00:36:53.784Z,97.89
2017-11-17T00:38:21.036Z,98.39
2017-11-17T00:39:52.452Z,98.38
2017-11-17T00:41:19.541Z,98.45
2017-11-17T00:42:46.900Z,98.76
2017-11-17T00:44:13.848Z,98.54
2017-11-17T00:45:37.291Z,98.36
2017-11-17T00:47:04.559Z,98.42
2017-11-17T00:48:31.796Z,98.44
2017-11-17T00:50:03.035Z,98.40
2017-11-17T00:51:26.319Z,98.20
2017-11-17T00:52:53.768Z,97.95
2017-11-17T00:54:21.055Z,97.15
2017-11-17T00:55:48.430Z,96.97
2017-11-17T00:57:15.861Z,96.58
2017-11-17T00:58:42.958Z,96.42
2017-11-17T01:00:14.236Z,96.03
2017-11-17T01:01:37.685Z,95.82
2017-11-17T01:03:04.965Z,95.80
2017-11-17T01:04:32.302Z,95.43
2017-11-17T01:05:59.718Z,95.28
2017-11-17T01:07:27.114Z,95.21
2017-11-17T01:08:54.299Z,95.20
2017-11-17T01:10:25.594Z,94.87
2017-11-17T01:11:48.941Z,94.92
2017-11-17T01:13:16.256Z,94.81
2017-11-17T01:14:43.599Z,94.45
2017-11-17T01:16:15.085Z,94.34
2017-11-17T01:17:42.208Z,94.10
2017-11-17T01:19:05.585Z,94.32
2017-11-17T01:20:32.975Z,94.47
2017-11-17T01:22:04.251Z,94.78
2017-11-17T01:23:27.576Z,94.40
2017-11-17T01:24:58.860Z,94.42
2017-11-17T01:26:22.114Z,94.43
2017-11-17T01:27:49.402Z,94.48
2017-11-17T01:29:16.817Z,94.31
2017-11-17T01:30:48.087Z,93.93
2017-11-17T01:32:11.405Z,94.03
2017-11-17T01:33:38.378Z,94.24
2017-11-17T01:35:05.876Z,94.03
2017-11-17T01:36:33.148Z,93.92
2017-11-17T01:38:00.487Z,94.26
2017-11-17T01:39:27.797Z,94.46
2017-11-17T01:40:54.971Z,93.99
2017-11-17T01:42:22.254Z,94.03
2017-11-17T01:43:53.341Z,93.82
2017-11-17T01:45:16.778Z,94.06
2017-11-17T01:46:44.060Z,94.24
2017-11-17T01:48:11.237Z,93.94
2017-11-17T01:49:38.630Z,93.90
2017-11-17T01:51:09.948Z,93.87
2017-11-17T01:52:37.336Z,93.50
2017-11-17T01:54:00.446Z,93.05
2017-11-17T01:55:31.935Z,92.84
2017-11-17T01:56:55.132Z,93.26
2017-11-17T01:58:22.477Z,93.04
2017-11-17T01:59:53.357Z,93.31
2017-11-17T02:01:16.619Z,93.59
2017-11-17T02:02:48.060Z,93.33
2017-11-17T02:04:11.356Z,92.87
2017-11-17T02:05:42.591Z,93.17
2017-11-17T02:07:06.023Z,92.53
2017-11-17T02:08:36.398Z,92.92
2017-11-17T02:10:04.848Z,92.04
2017-11-17T02:11:28.037Z,92.21
2017-11-17T02:12:55.307Z,92.02
2017-11-17T02:14:26.543Z,91.93
2017-11-17T02:15:49.760Z,92.22
2017-11-17T02:17:16.996Z,91.96
2017-11-17T02:18:48.312Z,91.47
2017-11-17T02:20:11.767Z,91.00
2017-11-17T02:21:43.232Z,90.97
2017-11-17T02:23:10.545Z,90.50
2017-11-17T02:24:33.970Z,90.66
2017-11-17T02:26:01.432Z,89.90
2017-11-17T02:27:28.761Z,88.59
2017-11-17T02:28:56.138Z,88.46
2017-11-17T02:30:23.277Z,88.60
2017-11-17T02:31:54.472Z,88.56
2017-11-17T02:33:21.820Z,87.89
2017-11-17T02:34:45.192Z,88.97
2017-11-17T02:36:12.551Z,88.93
2017-11-17T02:37:39.755Z,88.32
2017-11-17T02:39:07.194Z,87.09
2017-11-17T02:40:34.324Z,87.11
2017-11-17T02:42:01.543Z,87.69
2017-11-17T02:43:28.956Z,87.65
2017-11-17T02:44:56.190Z,87.24
2017-11-17T02:46:23.346Z,87.38
2017-11-17T02:47:54.475Z,87.41
2017-11-17T02:49:17.924Z,87.71
2017-11-17T02:50:45.264Z,87.25
2017-11-17T02:52:12.533Z,86.52
2017-11-17T02:53:43.885Z,87.22
2017-11-17T02:55:07.233Z,87.13
2017-11-17T02:56:34.625Z,87.16
2017-11-17T02:58:05.885Z,87.00
2017-11-17T02:59:29.133Z,87.58
2017-11-17T03:00:56.442Z,87.56
2017-11-17T03:02:27.855Z,86.96
2017-11-17T03:03:55.047Z,86.53
2017-11-17T03:05:18.336Z,86.61
2017-11-17T03:06:45.585Z,87.02
2017-11-17T03:08:16.884Z,87.49
2017-11-17T03:09:40.090Z,86.91
2017-11-17T03:11:07.263Z,87.11
2017-11-17T03:12:34.634Z,86.64
2017-11-17T03:14:02.106Z,86.77
2017-11-17T03:15:29.244Z,86.44
2017-11-17T03:16:56.421Z,86.22
2017-11-17T03:18:27.850Z,87.14
2017-11-17T03:19:51.100Z,87.13
2017-11-17T03:21:18.309Z,86.54
2017-11-17T03:22:45.559Z,86.08
2017-11-17T03:24:12.995Z,86.17
2017-11-17T03:25:40.323Z,86.09
2017-11-17T03:27:07.568Z,86.01
2017-11-17T03:28:34.832Z,86.43
2017-11-17T03:30:06.082Z,86.36
2017-11-17T03:31:29.418Z,86.86
2017-11-17T03:33:00.486Z,86.51
2017-11-17T03:34:27.819Z,86.75
2017-11-17T03:35:54.899Z,87.14
2017-11-17T03:37:17.991Z,86.31
2017-11-17T03:38:49.253Z,86.74
2017-11-17T03:40:16.597Z,86.82
2017-11-17T03:41:43.925Z,86.86
2017-11-17T03:43:07.344Z,87.27
2017-11-17T03:44:34.670Z,87.18
2017-11-17T03:46:05.919Z,86.93
2017-11-17T03:47:29.089Z,86.61
2017-11-17T03:48:56.427Z,86.21
2017-11-17T03:50:27.685Z,85.95
2017-11-17T03:51:50.819Z,86.93
2017-11-17T03:53:18.178Z,87.37
2017-11-17T03:54:45.430Z,87.42
2017-11-17T03:56:16.762Z,87.41
2017-11-17T03:57:39.805Z,86.53
2017-11-17T03:59:07.059Z,87.24
2017-11-17T04:00:34.256Z,86.96
2017-11-17T04:02:01.534Z,86.84
2017-11-17T04:03:32.857Z,86.75
2017-11-17T04:05:00.198Z,86.80
2017-11-17T04:06:23.431Z,86.46
2017-11-17T04:07:54.688Z,86.22
2017-11-17T04:09:17.960Z,86.38
2017-11-17T04:10:45.334Z,86.05
2017-11-17T04:12:16.628Z,85.77
2017-11-17T04:13:43.911Z,85.84
2017-11-17T04:15:07.209Z,85.97
2017-11-17T04:16:34.517Z,86.08
2017-11-17T04:18:01.796Z,86.00
2017-11-17T04:19:29.122Z,85.83
2017-11-17T04:21:00.438Z,85.88
2017-11-17T04:22:27.671Z,85.98
2017-11-17T04:23:54.614Z,85.79
2017-11-17T04:25:18.017Z,85.59
2017-11-17T04:26:45.371Z,86.46
2017-11-17T04:28:16.741Z,86.57
2017-11-17T04:29:40.189Z,87.01
2017-11-17T04:31:07.546Z,87.06
2017-11-17T04:32:34.680Z,86.39
2017-11-17T04:34:01.902Z,86.50
2017-11-17T04:35:29.034Z,86.74
2017-11-17T04:36:56.254Z,86.80
2017-11-17T04:38:23.438Z,86.92
2017-11-17T04:39:50.571Z,87.18
2017-11-17T04:41:18.028Z,86.92
2017-11-17T04:42:49.312Z,86.71
2017-11-17T04:44:12.528Z,86.83
2017-11-17T04:45:39.930Z,86.13
2017-11-17T04:47:11.178Z,86.74
2017-11-17T04:48:38.511Z,86.94
2017-11-17T04:50:01.800Z,87.30
2017-11-17T04:51:28.926Z,87.37
2017-11-17T04:52:56.247Z,87.31
2017-11-17T04:54:23.382Z,87.48
2017-11-17T04:55:50.503Z,86.85
2017-11-17T04:57:17.810Z,87.06
2017-11-17T04:58:44.992Z,86.88
2017-11-17T05:00:12.225Z,86.23
2017-11-17T05:01:43.477Z,86.61
2017-11-17T05:03:07.131Z,86.95
2017-11-17T05:04:34.206Z,86.04
2017-11-17T05:06:01.566Z,86.47
2017-11-17T05:07:28.776Z,86.89
2017-11-17T05:08:56.136Z,86.74
2017-11-17T05:10:27.358Z,86.79
2017-11-17T05:11:50.527Z,87.53
2017-11-17T05:13:17.667Z,86.88
2017-11-17T05:14:48.844Z,87.21
2017-11-17T05:16:12.264Z,86.94
2017-11-17T05:17:39.409Z,87.12
2017-11-17T05:19:06.862Z,86.77
2017-11-17T05:20:34.234Z,86.98
2017-11-17T05:22:01.589Z,87.06
2017-11-17T05:23:28.807Z,87.23
2017-11-17T05:24:55.930Z,87.31
2017-11-17T05:26:23.312Z,87.57
2017-11-17T05:27:54.781Z,87.66
2017-11-17T05:29:17.966Z,87.88
2017-11-17T05:30:45.436Z,87.29
2017-11-17T05:32:12.498Z,87.51
2017-11-17T05:33:39.921Z,87.50
2017-11-17T05:35:07.327Z,87.68
2017-11-17T05:36:38.617Z,87.78
2017-11-17T05:38:01.887Z,87.64
2017-11-17T05:39:29.267Z,87.76
2017-11-17T05:40:56.365Z,87.67
2017-11-17T05:42:23.555Z,87.44
2017-11-17T05:43:50.730Z,87.56
2017-11-17T05:45:18.155Z,87.50
2017-11-17T05:46:45.468Z,87.51
2017-11-17T05:48:12.812Z,87.22
2017-11-17T05:49:40.140Z,87.69
2017-11-17T05:51:11.242Z,87.88
2017-11-17T05:52:38.647Z,87.62
2017-11-17T05:54:01.809Z,87.76
2017-11-17T05:55:29.030Z,87.77
2017-11-17T05:56:56.176Z,88.48
2017-11-17T05:58:27.271Z,88.57
2017-11-17T05:59:50.517Z,88.76
2017-11-17T06:01:17.855Z,89.15
2017-11-17T06:02:45.205Z,89.58
2017-11-17T06:04:12.377Z,89.88
2017-11-17T06:05:39.399Z,90.17
2017-11-17T06:07:06.546Z,90.18
2017-11-17T06:08:33.904Z,90.47
2017-11-17T06:10:01.041Z,90.76
2017-11-17T06:11:28.382Z,90.91
2017-11-17T06:12:55.547Z,90.90
2017-11-17T06:14:22.845Z,90.92
2017-11-17T06:15:49.958Z,90.10
2017-11-17T06:17:17.299Z,90.61
2017-11-17T06:18:44.646Z,89.88
2017-11-17T06:20:12.030Z,90.26
2017-11-17T06:21:39.297Z,90.35
2017-11-17T06:23:06.474Z,89.70
2017-11-17T06:24:37.674Z,90.00
2017-11-17T06:26:05.094Z,90.67
2017-11-17T06:27:28.338Z,90.42
2017-11-17T06:28:55.560Z,90.67
2017-11-17T06:30:26.649Z,90.12
2017-11-17T06:31:49.875Z,90.06
2017-11-17T06:33:17.038Z,90.65
2017-11-17T06:34:44.518Z,90.76
2017-11-17T06:36:11.614Z,91.43
2017-11-17T06:37:38.633Z,91.05
2017-11-17T06:39:09.824Z,91.47
2017-11-17T06:40:37.068Z,91.42
2017-11-17T06:42:00.307Z,90.95
2017-11-17T06:43:27.580Z,90.85
2017-11-17T06:44:58.746Z,91.39
2017-11-17T06:46:27.157Z,90.78
2017-11-17T06:47:49.235Z,91.19
2017-11-17T06:49:16.585Z,91.53
2017-11-17T06:50:43.871Z,91.72
2017-11-17T06:52:15.258Z,91.86
2017-11-17T06:53:42.581Z,91.83
2017-11-17T06:55:05.879Z,92.08
2017-11-17T06:56:33.105Z,91.98
2017-11-17T06:58:00.466Z,92.34
2017-11-17T06:59:31.676Z,92.24
2017-11-17T07:00:54.915Z,91.80
2017-11-17T07:02:26.223Z,91.49
2017-11-17T07:03:53.269Z,91.57
2017-11-17T07:05:16.624Z,91.24
2017-11-17T07:06:47.978Z,91.55
2017-11-17T07:08:11.020Z,92.13
2017-11-17T07:09:38.371Z,91.83
2017-11-17T07:11:05.546Z,91.77
2017-11-17T07:12:32.717Z,91.92
2017-11-17T07:13:59.912Z,91.83
2017-11-17T07:15:31.116Z,91.69
2017-11-17T07:16:58.297Z,92.11
2017-11-17T07:18:25.463Z,91.53
2017-11-17T07:19:52.630Z,91.03
2017-11-17T07:21:15.882Z,91.40
2017-11-17T07:22:47.002Z,91.15
2017-11-17T07:24:10.379Z,91.05
2017-11-17T07:25:37.648Z,91.44
2017-11-17T07:27:04.826Z,91.55
2017-11-17T07:28:36.142Z,91.70
2017-11-17T07:30:03.302Z,92.53
2017-11-17T07:31:30.491Z,92.41
2017-11-17T07:32:53.654Z,92.42
2017-11-17T07:34:20.894Z,92.56
2017-11-17T07:35:52.049Z,92.53
2017-11-17T07:37:15.401Z,91.76
2017-11-17T07:38:42.717Z,91.81
2017-11-17T07:40:10.006Z,91.62
2017-11-17T07:41:41.393Z,91.78
2017-11-17T07:43:04.638Z,91.86
2017-11-17T07:44:35.972Z,91.70
2017-11-17T07:46:02.896Z,91.59
2017-11-17T07:47:26.225Z,91.39
2017-11-17T07:48:53.369Z,91.08
2017-11-17T07:50:20.535Z,90.84
2017-11-17T07:51:47.947Z,90.64
2017-11-17T07:53:15.161Z,90.48
2017-11-17T07:54:42.358Z,90.23
2017-11-17T07:56:09.787Z,90.17
2017-11-17T07:57:37.062Z,89.85
2017-11-17T07:59:04.142Z,90.10
2017-11-17T08:00:31.419Z,89.85
2017-11-17T08:01:58.467Z,89.69
2017-11-17T08:03:29.765Z,89.55
2017-11-17T08:04:53.020Z,89.44
2017-11-17T08:06:23.970Z,89.32
2017-11-17T08:07:51.318Z,89.33
2017-11-17T08:09:14.584Z,89.55
2017-11-17T08:10:46.128Z,89.56
2017-11-17T08:12:09.288Z,89.81
2017-11-17T08:13:40.331Z,89.75
2017-11-17T08:15:07.706Z,89.57
2017-11-17T08:16:30.949Z,89.63
2017-11-17T08:18:02.009Z,89.66
2017-11-17T08:19:29.182Z,89.83
2017-11-17T08:20:52.411Z,89.59
2017-11-17T08:22:19.791Z,89.62
2017-11-17T08:23:51.074Z,89.49
2017-11-17T08:25:14.481Z,89.53
2017-11-17T08:26:45.608Z,89.39
2017-11-17T08:28:08.874Z,89.36
2017-11-17T08:29:36.081Z,89.27
2017-11-17T08:31:03.480Z,89.44
2017-11-17T08:32:30.624Z,89.24
2017-11-17T08:34:02.029Z,89.04
2017-11-17T08:35:29.084Z,89.27
2017-11-17T08:36:56.273Z,89.33
2017-11-17T08:38:19.849Z,89.59
2017-11-17T08:39:47.062Z,89.36
2017-11-17T08:41:14.322Z,89.27
2017-11-17T08:42:41.687Z,89.22
2017-11-17T08:44:09.045Z,89.36
2017-11-17T08:45:40.688Z,89.31
2017-11-17T08:47:03.717Z,89.38
2017-11-17T08:48:30.964Z,89.26
2017-11-17T08:49:58.192Z,89.30
2017-11-17T08:51:29.488Z,89.47
2017-11-17T08:52:52.717Z,89.41
2017-11-17T08:54:19.921Z,89.49
2017-11-17T08:55:47.076Z,89.19
2017-11-17T08:57:18.343Z,89.49
2017-11-17T08:58:41.662Z,89.12
2017-11-17T09:00:08.941Z,89.53
2017-11-17T09:01:36.284Z,89.53
2017-11-17T09:03:03.539Z,89.87
2017-11-17T09:04:30.730Z,89.98
2017-11-17T09:06:01.901Z,89.93
2017-11-17T09:07:29.308Z,89.98
2017-11-17T09:08:56.667Z,89.89
2017-11-17T09:10:19.814Z,89.63
2017-11-17T09:11:47.181Z,89.81
2017-11-17T09:13:18.520Z,89.78
2017-11-17T09:14:41.604Z,89.71
2017-11-17T09:16:08.984Z,89.50
2017-11-17T09:17:40.326Z,89.33
2017-11-17T09:19:07.617Z,89.92
2017-11-17T09:20:34.905Z,89.98
2017-11-17T09:22:02.296Z,89.68
2017-11-17T09:23:25.595Z,89.73
2017-11-17T09:24:52.779Z,89.31
2017-11-17T09:26:19.834Z,89.81
2017-11-17T09:27:51.158Z,89.73
2017-11-17T09:29:18.512Z,90.03
2017-11-17T09:30:41.746Z,89.82
2017-11-17T09:32:09.132Z,89.96
2017-11-17T09:33:40.416Z,90.25
2017-11-17T09:35:07.683Z,90.13
2017-11-17T09:36:31.056Z,90.01
2017-11-17T09:37:58.353Z,89.63
2017-11-17T09:39:25.449Z,89.61
2017-11-17T09:40:52.785Z,89.03
2017-11-17T09:42:19.756Z,89.27
2017-11-17T09:43:47.073Z,89.33
2017-11-17T09:45:18.406Z,89.05
2017-11-17T09:46:41.573Z,88.61
2017-11-17T09:48:08.994Z,88.58
2017-11-17T09:49:36.350Z,88.60
2017-11-17T09:51:03.525Z,88.47
2017-11-17T09:52:30.699Z,87.85
2017-11-17T09:53:57.911Z,88.01
2017-11-17T09:55:25.133Z,87.90
2017-11-17T09:56:56.421Z,87.40
2017-11-17T09:58:19.667Z,87.35
2017-11-17T09:59:50.932Z,87.46
2017-11-17T10:01:18.223Z,87.19
2017-11-17T10:02:45.621Z,87.23
2017-11-17T10:04:08.954Z,86.66
2017-11-17T10:05:40.307Z,86.69
2017-11-17T10:07:03.584Z,86.92
2017-11-17T10:08:30.787Z,87.13
2017-11-17T10:09:57.843Z,86.74
2017-11-17T10:11:25.129Z,86.49
2017-11-17T10:12:52.329Z,86.33
2017-11-17T10:14:19.357Z,86.72
2017-11-17T10:15:46.465Z,86.61
2017-11-17T10:17:13.730Z,86.81
2017-11-17T10:18:41.137Z,87.30
2017-11-17T10:20:08.451Z,86.65
2017-11-17T10:21:35.527Z,86.24
2017-11-17T10:23:02.922Z,86.78
2017-11-17T10:24:30.223Z,86.48
2017-11-17T10:25:57.538Z,86.71
2017-11-17T10:27:24.653Z,86.50
2017-11-17T10:28:51.871Z,86.39
2017-11-17T10:30:23.107Z,86.85
2017-11-17T10:31:46.394Z,86.51
2017-11-17T10:33:17.667Z,85.64
2017-11-17T10:34:40.877Z,86.87
2017-11-17T10:36:08.146Z,86.27
2017-11-17T10:37:35.373Z,86.00
2017-11-17T10:39:02.590Z,85.50
2017-11-17T10:40:29.787Z,86.36
2017-11-17T10:41:57.139Z,85.82
2017-11-17T10:43:24.537Z,85.82
2017-11-17T10:44:55.878Z,85.20
2017-11-17T10:46:18.972Z,85.83
2017-11-17T10:47:46.209Z,85.55
2017-11-17T10:49:13.470Z,85.67
2017-11-17T10:50:40.776Z,84.75
2017-11-17T10:52:08.216Z,84.63
2017-11-17T10:53:39.508Z,85.14
2017-11-17T10:55:06.989Z,84.87
2017-11-17T10:56:34.308Z,84.97
2017-11-17T10:57:57.402Z,84.00
2017-11-17T10:59:28.867Z,84.89
2017-11-17T11:00:51.979Z,84.45
2017-11-17T11:02:19.300Z,84.03
2017-11-17T11:03:46.665Z,84.90
2017-11-17T11:05:14.050Z,83.59
2017-11-17T11:06:41.165Z,83.29
2017-11-17T11:08:08.268Z,84.59
2017-11-17T11:09:35.675Z,84.02
2017-11-17T11:11:06.877Z,83.25
2017-11-17T11:12:30.118Z,84.68
2017-11-17T11:14:01.635Z,83.20
2017-11-17T11:15:29.067Z,83.63
2017-11-17T11:16:52.231Z,83.78
2017-11-17T11:18:19.478Z,82.83
2017-11-17T11:19:50.697Z,82.93
2017-11-17T11:21:18.215Z,82.39
2017-11-17T11:22:41.633Z,81.04
2017-11-17T11:24:08.879Z,80.58
2017-11-17T11:25:36.210Z,80.47
2017-11-17T11:27:07.606Z,80.27
2017-11-17T11:28:34.738Z,81.54
2017-11-17T11:29:58.164Z,80.60
2017-11-17T11:31:25.429Z,80.66
2017-11-17T11:32:52.710Z,79.96
2017-11-17T11:34:19.869Z,80.34
2017-11-17T11:35:51.285Z,80.55
2017-11-17T11:37:18.723Z,80.14
2017-11-17T11:38:42.184Z,79.71
2017-11-17T11:40:09.644Z,79.09
2017-11-17T11:41:36.984Z,78.48
2017-11-17T11:43:04.543Z,77.00
2017-11-17T11:44:35.749Z,76.89
2017-11-17T11:46:03.206Z,78.48
2017-11-17T11:47:26.539Z,78.08
2017-11-17T11:48:53.744Z,76.17
2017-11-17T11:50:21.034Z,75.94
2017-11-17T11:51:48.397Z,76.38
2017-11-17T11:53:15.757Z,75.57
2017-11-17T11:54:47.006Z,74.55
2017-11-17T11:56:10.338Z,76.57
2017-11-17T11:57:37.836Z,74.69
2017-11-17T11:59:05.008Z,74.42
2017-11-17T12:00:32.265Z,73.78
2017-11-17T12:01:59.593Z,74.75
2017-11-17T12:03:30.935Z,73.72
2017-11-17T12:04:54.012Z,74.42
2017-11-17T12:06:21.353Z,72.83
2017-11-17T12:07:48.555Z,72.46
2017-11-17T12:09:15.958Z,73.30
2017-11-17T12:10:47.449Z,73.79
2017-11-17T12:12:10.672Z,74.96
2017-11-17T12:13:38.028Z,73.66
2017-11-17T12:15:05.122Z,74.23
2017-11-17T12:16:32.352Z,73.65
2017-11-17T12:17:59.890Z,73.66
2017-11-17T12:19:31.229Z,73.36
2017-11-17T12:20:54.599Z,72.11
2017-11-17T12:22:21.677Z,70.98
2017-11-17T12:23:49.196Z,72.73
2017-11-17T12:25:16.376Z,72.98
2017-11-17T12:26:47.857Z,72.70
2017-11-17T12:28:10.977Z,71.36
2017-11-17T12:29:38.208Z,69.38
2017-11-17T12:31:09.626Z,70.54
2017-11-17T12:32:33.149Z,68.30
2017-11-17T12:34:04.350Z,68.71
2017-11-17T12:35:27.621Z,69.39
2017-11-17T12:36:54.889Z,69.62
2017-11-17T12:38:26.283Z,70.26
2017-11-17T12:39:49.473Z,68.88
2017-11-17T12:41:20.824Z,68.52
2017-11-17T12:42:44.218Z,69.32
2017-11-17T12:44:15.653Z,70.39
2017-11-17T12:45:38.839Z,68.81
2017-11-17T12:47:06.198Z,69.34
2017-11-17T12:48:33.535Z,68.71
2017-11-17T12:50:00.801Z,68.05
2017-11-17T12:51:28.317Z,67.34
2017-11-17T12:52:55.771Z,67.81
2017-11-17T12:54:23.079Z,68.75
2017-11-17T12:55:54.334Z,70.05
2017-11-17T12:57:17.739Z,69.46
2017-11-17T12:58:45.180Z,68.93
2017-11-17T13:00:12.482Z,69.42
2017-11-17T13:01:39.928Z,68.56
2017-11-17T13:03:07.092Z,69.58
2017-11-17T13:04:34.433Z,69.00
2017-11-17T13:06:01.873Z,69.60
2017-11-17T13:07:29.271Z,68.52
2017-11-17T13:08:56.530Z,69.75
2017-11-17T13:10:23.889Z,69.76
2017-11-17T13:11:51.216Z,69.56
2017-11-17T13:13:22.669Z,69.77
2017-11-17T13:14:46.019Z,68.42
2017-11-17T13:16:13.226Z,69.09
2017-11-17T13:17:40.657Z,69.28
2017-11-17T13:19:07.997Z,68.39
2017-11-17T13:20:39.411Z,67.92
2017-11-17T13:22:06.674Z,68.95
2017-11-17T13:23:30.143Z,68.56
2017-11-17T13:25:01.491Z,67.72
2017-11-17T13:26:28.832Z,66.50
2017-11-17T13:27:52.239Z,67.37
2017-11-17T13:29:19.624Z,67.35
2017-11-17T13:30:46.934Z,67.42
2017-11-17T13:32:14.365Z,68.14
2017-11-17T13:33:45.627Z,68.75
2017-11-17T13:35:13.227Z,67.33
2017-11-17T13:36:40.454Z,67.69
2017-11-17T13:38:03.886Z,67.86
2017-11-17T13:39:35.257Z,68.57
2017-11-17T13:41:02.644Z,69.33
2017-11-17T13:42:25.909Z,69.68
2017-11-17T13:43:57.193Z,69.49
2017-11-17T13:45:20.394Z,68.89
2017-11-17T13:46:47.596Z,69.14
2017-11-17T13:48:14.918Z,68.97
2017-11-17T13:49:42.310Z,70.31
2017-11-17T13:51:09.705Z,69.83
2017-11-17T13:52:37.011Z,71.14
2017-11-17T13:54:04.030Z,70.68
2017-11-17T13:55:35.276Z,70.29
2017-11-17T13:56:58.770Z,70.23
2017-11-17T13:58:30.034Z,70.14
2017-11-17T13:59:53.348Z,70.16
2017-11-17T14:01:20.709Z,71.69
2017-11-17T14:02:51.998Z,70.94
2017-11-17T14:04:15.512Z,71.62
2017-11-17T14:05:42.846Z,71.68
2017-11-17T14:07:14.318Z,71.04
2017-11-17T14:08:37.723Z,71.56
2017-11-17T14:10:04.906Z,72.00
2017-11-17T14:11:32.105Z,73.26
2017-11-17T14:12:59.594Z,73.49
2017-11-17T14:14:30.715Z,73.64
2017-11-17T14:15:53.822Z,73.95
2017-11-17T14:17:21.079Z,73.50
2017-11-17T14:18:48.513Z,73.60
2017-11-17T14:20:15.806Z,72.85
2017-11-17T14:21:43.077Z,73.11
2017-11-17T14:23:10.468Z,75.20
2017-11-17T14:24:37.780Z,73.55
2017-11-17T14:26:05.238Z,74.31
2017-11-17T14:27:32.526Z,73.45
2017-11-17T14:28:59.875Z,74.16
2017-11-17T14:30:27.176Z,74.77
2017-11-17T14:31:58.456Z,74.75
2017-11-17T14:33:25.774Z,75.40
2017-11-17T14:34:49.079Z,74.87
2017-11-17T14:36:20.398Z,75.16
2017-11-17T14:37:47.789Z,74.57
2017-11-17T14:39:11.112Z,74.58
2017-11-17T14:40:38.459Z,74.80
2017-11-17T14:42:05.958Z,75.05
2017-11-17T14:43:33.240Z,75.28
2017-11-17T14:45:04.722Z,75.35
2017-11-17T14:46:31.831Z,74.86
2017-11-17T14:47:58.927Z,75.33
2017-11-17T14:49:22.260Z,74.53
2017-11-17T14:50:53.730Z,74.11
2017-11-17T14:52:17.046Z,74.61
2017-11-17T14:53:44.484Z,74.25
2017-11-17T14:55:15.854Z,74.16
2017-11-17T14:56:39.190Z,74.21
2017-11-17T14:58:06.376Z,74.73
2017-11-17T14:59:33.727Z,75.07
2017-11-17T15:01:01.083Z,74.90
2017-11-17T15:02:28.467Z,75.23
2017-11-17T15:03:55.793Z,74.92
2017-11-17T15:05:22.952Z,75.00
2017-11-17T15:06:50.266Z,75.39
2017-11-17T15:08:22.667Z,74.86
2017-11-17T15:09:45.036Z,74.74
2017-11-17T15:11:12.395Z,74.50
2017-11-17T15:12:39.841Z,74.36
2017-11-17T15:14:07.105Z,74.38
2017-11-17T15:15:34.534Z,74.16
2017-11-17T15:17:01.683Z,74.44
2017-11-17T15:18:32.989Z,74.66
2017-11-17T15:19:56.416Z,74.84
2017-11-17T15:21:23.867Z,74.95
2017-11-17T15:22:55.281Z,75.36
2017-11-17T15:24:22.514Z,75.42
2017-11-17T15:25:49.836Z,75.87
2017-11-17T15:27:17.067Z,76.17
2017-11-17T15:28:44.331Z,75.95
2017-11-17T15:30:07.693Z,75.97
2017-11-17T15:31:34.890Z,75.96
2017-11-17T15:33:02.247Z,75.72
2017-11-17T15:34:29.684Z,75.64
2017-11-17T15:35:57.152Z,75.65
2017-11-17T15:37:24.418Z,75.60
2017-11-17T15:38:51.429Z,75.50
2017-11-17T15:40:18.907Z,75.55
2017-11-17T15:41:50.238Z,75.84
2017-11-17T15:43:13.496Z,75.67
2017-11-17T15:44:44.856Z,75.65
2017-11-17T15:46:08.158Z,75.40
2017-11-17T15:47:35.703Z,75.52
2017-11-17T15:49:02.824Z,76.24
2017-11-17T15:50:30.082Z,75.85
2017-11-17T15:51:57.365Z,75.77
2017-11-17T15:53:28.495Z,75.92
2017-11-17T15:54:51.877Z,75.63
2017-11-17T15:56:19.044Z,75.45
2017-11-17T15:57:46.439Z,75.76
2017-11-17T15:59:13.882Z,75.93
2017-11-17T16:00:41.008Z,75.58
2017-11-17T16:02:08.282Z,75.45
2017-11-17T16:03:39.646Z,75.50
2017-11-17T16:05:02.553Z,75.52
2017-11-17T16:06:33.871Z,75.68
2017-11-17T16:07:57.366Z,75.81
2017-11-17T16:09:28.560Z,75.65
2017-11-17T16:10:51.711Z,75.75
2017-11-17T16:12:19.058Z,75.87
2017-11-17T16:13:46.208Z,75.97
2017-11-17T16:15:13.547Z,76.31
2017-11-17T16:16:40.860Z,76.31
2017-11-17T16:18:12.098Z,76.42
2017-11-17T16:19:39.388Z,76.60
2017-11-17T16:21:02.776Z,76.51
2017-11-17T16:22:33.984Z,76.66
2017-11-17T16:23:57.300Z,76.51
2017-11-17T16:25:24.643Z,76.56
2017-11-17T16:26:51.892Z,76.60
2017-11-17T16:28:19.041Z,76.75
2017-11-17T16:29:46.256Z,77.14
2017-11-17T16:31:17.754Z,76.75
2017-11-17T16:32:41.111Z,76.65
2017-11-17T16:34:12.518Z,76.88
2017-11-17T16:35:35.635Z,76.79
2017-11-17T16:37:02.941Z,76.82
2017-11-17T16:38:30.257Z,76.74
2017-11-17T16:40:01.580Z,76.80
2017-11-17T16:41:24.912Z,76.76
2017-11-17T16:42:52.072Z,76.79
2017-11-17T16:44:19.462Z,76.91
2017-11-17T16:45:46.816Z,77.10
2017-11-17T16:47:18.188Z,77.49
2017-11-17T16:48:45.554Z,77.16
2017-11-17T16:50:16.011Z,77.02
2017-11-17T16:51:36.237Z,76.99
2017-11-17T16:53:07.514Z,77.03
2017-11-17T16:54:30.589Z,77.01
2017-11-17T16:55:57.887Z,76.91
2017-11-17T16:57:25.022Z,77.06
2017-11-17T16:58:52.220Z,77.19
2017-11-17T17:00:19.314Z,77.28
2017-11-17T17:01:46.747Z,77.13
2017-11-17T17:03:13.854Z,77.39
2017-11-17T17:04:41.157Z,77.27
2017-11-17T17:06:12.363Z,77.38
2017-11-17T17:07:35.820Z,77.29
2017-11-17T17:09:02.933Z,77.46
2017-11-17T17:10:30.202Z,77.19
2017-11-17T17:11:57.553Z,77.29
2017-11-17T17:13:28.929Z,77.31
2017-11-17T17:14:52.077Z,77.51
2017-11-17T17:16:19.258Z,77.44
2017-11-17T17:17:46.709Z,77.32
2017-11-17T17:19:13.945Z,77.43
2017-11-17T17:20:41.298Z,77.51
2017-11-17T17:22:12.614Z,77.34
2017-11-17T17:23:39.977Z,77.44
2017-11-17T17:25:03.233Z,77.32
2017-11-17T17:26:30.550Z,77.57
2017-11-17T17:27:57.775Z,77.27
2017-11-17T17:29:25.024Z,77.17
2017-11-17T17:30:52.289Z,77.10
2017-11-17T17:32:23.674Z,77.47
2017-11-17T17:33:47.045Z,77.49
2017-11-17T17:35:18.375Z,77.54
2017-11-17T17:36:41.644Z,77.57
2017-11-17T17:38:09.154Z,77.33
2017-11-17T17:39:40.127Z,77.46
2017-11-17T17:41:03.563Z,77.34
2017-11-17T17:42:34.793Z,77.65
2017-11-17T17:44:02.091Z,77.43
2017-11-17T17:45:29.357Z,77.60
2017-11-17T17:46:52.738Z,77.52
2017-11-17T17:48:23.972Z,77.61
2017-11-17T17:49:47.303Z,77.53
2017-11-17T17:51:18.574Z,77.86
2017-11-17T17:52:41.530Z,78.03
2017-11-17T17:54:12.689Z,78.07
2017-11-17T17:55:35.999Z,77.95
2017-11-17T17:57:03.305Z,78.18
2017-11-17T17:58:30.559Z,78.01
2017-11-17T17:59:57.723Z,77.98
2017-11-17T18:01:28.853Z,77.99
2017-11-17T18:02:52.207Z,77.87
2017-11-17T18:04:19.531Z,78.12
2017-11-17T18:05:51.028Z,77.81
2017-11-17T18:07:14.510Z,77.92
2017-11-17T18:08:41.662Z,77.83
2017-11-17T18:10:09.053Z,78.14
2017-11-17T18:11:36.341Z,78.25
2017-11-17T18:13:03.782Z,78.12
2017-11-17T18:14:30.980Z,78.28
2017-11-17T18:16:02.202Z,78.61
2017-11-17T18:17:29.236Z,78.65
2017-11-17T18:18:52.535Z,78.91
2017-11-17T18:20:24.035Z,78.68
2017-11-17T18:21:51.560Z,79.16
2017-11-17T18:23:14.893Z,78.98
2017-11-17T18:24:42.187Z,79.31
2017-11-17T18:26:09.492Z,79.12
2017-11-17T18:27:40.816Z,78.97
2017-11-17T18:29:04.140Z,78.81
2017-11-17T18:30:35.375Z,78.80
2017-11-17T18:31:58.750Z,78.78
2017-11-17T18:33:30.044Z,78.69
2017-11-17T18:34:53.335Z,78.81
2017-11-17T18:36:24.457Z,78.66
2017-11-17T18:37:47.757Z,78.58
2017-11-17T18:39:15.120Z,78.89
2017-11-17T18:40:46.673Z,78.93
2017-11-17T18:42:14.196Z,78.87
2017-11-17T18:43:37.264Z,78.88